createdAt,value
2023-03-31T00:02:13.802Z,74.75
2023-03-31T00:04:46.506Z,75.29
2023-03-31T00:07:14.990Z,74.81
2023-03-31T00:09:46.275Z,75.42
2023-03-31T00:12:14.979Z,74.90
2023-03-31T00:14:42.911Z,74.99
2023-03-31T00:17:10.693Z,75.30
2023-03-31T00:19:37.962Z,75.00
2023-03-31T00:22:05.538Z,75.43
2023-03-31T00:24:33.215Z,74.79
2023-03-31T00:27:01.762Z,74.93
2023-03-31T00:29:29.059Z,75.01
2023-03-31T00:31:56.100Z,75.29
2023-03-31T00:34:22.798Z,75.02
2023-03-31T00:36:49.565Z,75.36
2023-03-31T00:39:18.760Z,75.27
2023-03-31T00:41:45.751Z,75.19
2023-03-31T00:44:27.826Z,75.53
2023-03-31T00:47:10.436Z,75.72
2023-03-31T00:49:45.406Z,75.68
2023-03-31T00:52:48.811Z,75.20
2023-03-31T00:55:18.898Z,75.18
2023-03-31T00:57:48.047Z,75.27
2023-03-31T01:00:16.358Z,75.17
2023-03-31T01:02:51.572Z,75.18
2023-03-31T01:05:22.336Z,75.16
2023-03-31T01:07:51.896Z,75.41
2023-03-31T01:10:19.220Z,75.27
2023-03-31T01:12:54.894Z,75.43
2023-03-31T01:15:22.477Z,75.41
2023-03-31T01:17:51.125Z,75.30
2023-03-31T01:20:38.548Z,75.85
2023-03-31T01:23:17.089Z,75.78
2023-03-31T01:25:50.443Z,75.55
2023-03-31T01:28:39.035Z,76.01
2023-03-31T01:31:15.140Z,75.58
2023-03-31T01:34:12.624Z,75.82
2023-03-31T01:36:48.454Z,75.95
2023-03-31T01:39:42.994Z,76.15
2023-03-31T01:42:12.596Z,76.10
2023-03-31T01:45:16.831Z,75.82
2023-03-31T01:47:52.131Z,76.02
2023-03-31T01:50:48.531Z,76.28
2023-03-31T01:53:24.964Z,76.86
2023-03-31T01:55:57.635Z,76.45
2023-03-31T01:58:36.254Z,76.81
2023-03-31T02:01:10.414Z,76.28
2023-03-31T02:03:53.700Z,76.66
2023-03-31T02:06:25.416Z,76.81
2023-03-31T02:08:57.360Z,76.72
2023-03-31T02:11:25.649Z,76.52
2023-03-31T02:13:56.367Z,76.53
2023-03-31T02:16:26.775Z,76.82
2023-03-31T02:19:02.670Z,76.66
2023-03-31T02:21:32.983Z,76.87
2023-03-31T02:24:04.222Z,76.60
2023-03-31T02:26:36.392Z,76.92
2023-03-31T02:29:03.469Z,77.03
2023-03-31T02:32:20.626Z,76.73
2023-03-31T02:34:47.385Z,76.76
2023-03-31T02:37:14.906Z,77.07
2023-03-31T02:39:44.820Z,76.80
2023-03-31T02:42:11.890Z,76.79
2023-03-31T02:44:40.143Z,76.63
2023-03-31T02:47:11.509Z,76.66
2023-03-31T02:49:46.098Z,76.77
2023-03-31T02:52:34.747Z,76.96
2023-03-31T02:55:10.235Z,76.53
2023-03-31T02:58:01.414Z,76.77
2023-03-31T03:00:52.921Z,76.53
2023-03-31T03:03:25.658Z,76.80
2023-03-31T03:06:13.907Z,76.78
2023-03-31T03:09:18.583Z,76.96
2023-03-31T03:11:51.654Z,76.53
2023-03-31T03:14:36.082Z,76.56
2023-03-31T03:17:26.000Z,77.04
2023-03-31T03:20:00.417Z,77.14
2023-03-31T03:22:27.317Z,76.91
2023-03-31T03:24:54.282Z,76.86
2023-03-31T03:27:22.974Z,76.87
2023-03-31T03:29:49.647Z,77.17
2023-03-31T03:32:16.383Z,77.21
2023-03-31T03:34:43.308Z,77.26
2023-03-31T03:37:09.950Z,76.97
2023-03-31T03:39:36.577Z,77.40
2023-03-31T03:42:04.079Z,77.40
2023-03-31T03:44:31.108Z,77.25
2023-03-31T03:46:57.802Z,77.03
2023-03-31T03:49:24.621Z,77.44
2023-03-31T03:51:51.680Z,77.42
2023-03-31T03:54:18.525Z,77.38
2023-03-31T03:56:45.240Z,78.06
2023-03-31T03:59:12.244Z,77.67
2023-03-31T04:01:38.826Z,77.57
2023-03-31T04:04:06.028Z,77.95
2023-03-31T04:06:32.707Z,77.81
2023-03-31T04:08:59.319Z,77.84
2023-03-31T04:11:26.227Z,78.01
2023-03-31T04:13:52.923Z,78.02
2023-03-31T04:16:19.821Z,78.65
2023-03-31T04:18:46.612Z,77.95
2023-03-31T04:21:15.517Z,78.20
2023-03-31T04:23:46.885Z,78.36
2023-03-31T04:26:18.588Z,78.14
2023-03-31T04:28:50.807Z,78.25
2023-03-31T04:31:27.025Z,78.77
2023-03-31T04:33:54.396Z,78.33
2023-03-31T04:36:21.996Z,79.10
2023-03-31T04:38:56.386Z,79.08
2023-03-31T04:41:24.592Z,79.04
2023-03-31T04:43:51.388Z,79.09
2023-03-31T04:46:18.273Z,79.37
2023-03-31T04:48:45.295Z,79.20
2023-03-31T04:51:15.328Z,79.16
2023-03-31T04:53:42.008Z,79.89
2023-03-31T04:56:08.999Z,79.44
2023-03-31T04:58:35.913Z,79.68
2023-03-31T05:01:02.577Z,79.78
2023-03-31T05:03:29.362Z,80.12
2023-03-31T05:05:56.088Z,80.19
2023-03-31T05:08:22.849Z,79.83
2023-03-31T05:10:49.758Z,80.10
2023-03-31T05:13:16.470Z,80.00
2023-03-31T05:15:45.227Z,79.90
2023-03-31T05:18:12.110Z,79.92
2023-03-31T05:20:39.161Z,80.12
2023-03-31T05:23:07.000Z,80.67
2023-03-31T05:25:33.937Z,80.36
2023-03-31T05:28:00.910Z,80.65
2023-03-31T05:30:28.899Z,80.60
2023-03-31T05:32:56.929Z,81.00
2023-03-31T05:35:23.696Z,80.55
2023-03-31T05:37:51.133Z,80.78
2023-03-31T05:40:17.920Z,80.67
2023-03-31T05:42:44.547Z,80.65
2023-03-31T05:45:12.549Z,81.04
2023-03-31T05:47:39.337Z,80.88
2023-03-31T05:50:09.127Z,81.24
2023-03-31T05:52:36.629Z,81.05
2023-03-31T05:55:04.496Z,81.01
2023-03-31T05:57:31.692Z,80.96
2023-03-31T05:59:58.621Z,81.28
2023-03-31T06:02:25.825Z,80.96
2023-03-31T06:04:52.594Z,81.24
2023-03-31T06:07:19.309Z,81.15
2023-03-31T06:09:46.694Z,80.79
2023-03-31T06:12:13.485Z,81.35
2023-03-31T06:14:40.283Z,81.54
2023-03-31T06:17:07.383Z,81.54
2023-03-31T06:19:34.414Z,81.28
2023-03-31T06:22:01.711Z,81.69
2023-03-31T06:24:28.539Z,81.27
2023-03-31T06:26:55.244Z,81.22
2023-03-31T06:29:22.090Z,81.87
2023-03-31T06:31:48.903Z,81.60
2023-03-31T06:34:15.633Z,81.84
2023-03-31T06:36:42.351Z,81.71
2023-03-31T06:39:09.100Z,81.89
2023-03-31T06:41:35.917Z,81.46
2023-03-31T06:44:02.530Z,81.48
2023-03-31T06:46:29.181Z,81.93
2023-03-31T06:48:56.289Z,81.53
2023-03-31T06:51:23.121Z,81.82
2023-03-31T06:53:49.812Z,81.49
2023-03-31T06:56:16.574Z,81.66
2023-03-31T06:58:43.358Z,82.00
2023-03-31T07:01:11.840Z,82.00
2023-03-31T07:03:38.761Z,81.80
2023-03-31T07:06:05.808Z,81.67
2023-03-31T07:08:32.727Z,81.93
2023-03-31T07:11:00.897Z,81.85
2023-03-31T07:13:28.998Z,81.86
2023-03-31T07:15:56.256Z,81.63
2023-03-31T07:18:26.212Z,82.11
2023-03-31T07:20:53.430Z,81.71
2023-03-31T07:23:20.842Z,82.08
2023-03-31T07:25:48.465Z,82.06
2023-03-31T07:28:16.245Z,81.94
2023-03-31T07:30:43.077Z,81.68
2023-03-31T07:33:09.891Z,82.25
2023-03-31T07:35:41.585Z,82.15
2023-03-31T07:38:12.697Z,81.91
2023-03-31T07:40:40.819Z,82.28
2023-03-31T07:43:07.914Z,81.98
2023-03-31T07:45:35.703Z,81.86
2023-03-31T07:48:02.519Z,82.06
2023-03-31T07:50:29.755Z,81.91
2023-03-31T07:52:56.477Z,81.99
2023-03-31T07:55:23.984Z,81.77
2023-03-31T07:57:51.461Z,81.97
2023-03-31T08:00:19.185Z,81.87
2023-03-31T08:02:45.907Z,82.27
2023-03-31T08:05:15.733Z,82.05
2023-03-31T08:07:45.335Z,82.43
2023-03-31T08:10:17.591Z,82.35
2023-03-31T08:12:44.571Z,82.24
2023-03-31T08:15:11.668Z,82.14
2023-03-31T08:17:38.671Z,81.96
2023-03-31T08:20:10.157Z,82.10
2023-03-31T08:22:37.954Z,82.09
2023-03-31T08:25:06.437Z,82.02
2023-03-31T08:27:37.411Z,82.14
2023-03-31T08:30:04.871Z,82.38
2023-03-31T08:32:33.023Z,81.95
2023-03-31T08:35:00.368Z,82.09
2023-03-31T08:37:28.446Z,82.45
2023-03-31T08:39:56.094Z,82.35
2023-03-31T08:42:43.698Z,82.81
2023-03-31T08:45:21.284Z,82.41
2023-03-31T08:47:53.601Z,82.12
2023-03-31T08:50:26.114Z,82.41
2023-03-31T08:53:16.721Z,82.19
2023-03-31T08:55:50.928Z,82.57
2023-03-31T08:58:37.139Z,82.79
2023-03-31T09:01:19.914Z,82.60
2023-03-31T09:04:14.103Z,82.67
2023-03-31T09:07:03.712Z,82.55
2023-03-31T09:09:33.568Z,82.29
2023-03-31T09:12:08.106Z,82.60
2023-03-31T09:15:01.741Z,82.06
2023-03-31T09:17:37.547Z,82.29
2023-03-31T09:20:16.285Z,82.38
2023-03-31T09:22:51.012Z,82.58
2023-03-31T09:25:28.644Z,81.99
2023-03-31T09:27:58.422Z,82.14
2023-03-31T09:30:28.656Z,82.12
2023-03-31T09:33:02.924Z,81.99
2023-03-31T09:35:33.694Z,82.08
2023-03-31T09:38:00.652Z,81.99
2023-03-31T09:40:28.809Z,82.04
2023-03-31T09:43:01.884Z,82.38
2023-03-31T09:45:30.971Z,82.07
2023-03-31T09:48:01.248Z,81.93
2023-03-31T09:50:30.944Z,81.88
2023-03-31T09:53:00.881Z,82.17
2023-03-31T09:55:44.568Z,82.09
2023-03-31T09:58:16.778Z,81.75
2023-03-31T10:00:58.238Z,81.95
2023-03-31T10:03:25.541Z,81.93
2023-03-31T10:05:55.253Z,81.40
2023-03-31T10:08:28.040Z,81.67
2023-03-31T10:11:13.705Z,81.83
2023-03-31T10:13:48.640Z,81.54
2023-03-31T10:16:30.921Z,81.25
2023-03-31T10:19:35.074Z,81.59
2023-03-31T10:22:16.709Z,81.74
2023-03-31T10:24:45.765Z,81.52
2023-03-31T10:27:28.893Z,81.66
2023-03-31T10:30:01.659Z,81.53
2023-03-31T10:32:31.916Z,81.12
2023-03-31T10:35:08.161Z,81.39
2023-03-31T10:37:36.731Z,81.74
2023-03-31T10:40:14.689Z,81.32
2023-03-31T10:42:46.401Z,81.30
2023-03-31T10:45:56.629Z,81.53
2023-03-31T10:48:34.718Z,81.77
2023-03-31T10:51:12.808Z,81.87
2023-03-31T10:53:51.858Z,81.75
2023-03-31T10:56:24.600Z,81.25
2023-03-31T10:59:06.034Z,81.69
2023-03-31T11:01:52.089Z,80.98
2023-03-31T11:04:58.175Z,81.20
2023-03-31T11:07:52.822Z,80.72
2023-03-31T11:10:25.398Z,80.61
2023-03-31T11:13:04.735Z,80.24
2023-03-31T11:16:08.023Z,79.86
2023-03-31T11:18:46.988Z,79.34
2023-03-31T11:21:40.605Z,79.50
2023-03-31T11:24:16.374Z,79.58
2023-03-31T11:27:09.727Z,79.25
2023-03-31T11:29:42.205Z,79.14
2023-03-31T11:32:37.287Z,78.91
2023-03-31T11:35:19.218Z,78.55
2023-03-31T11:37:56.164Z,78.48
2023-03-31T11:40:35.129Z,77.63
2023-03-31T11:43:04.476Z,77.52
2023-03-31T11:45:39.926Z,77.44
2023-03-31T11:48:17.130Z,77.56
2023-03-31T11:50:47.327Z,77.61
2023-03-31T11:53:27.004Z,77.85
2023-03-31T11:55:55.929Z,77.38
2023-03-31T11:58:59.228Z,77.52
2023-03-31T12:01:44.092Z,76.71
2023-03-31T12:04:33.602Z,76.37
2023-03-31T12:07:16.290Z,75.97
2023-03-31T12:10:11.383Z,75.37
2023-03-31T12:13:02.564Z,76.38
2023-03-31T12:15:39.424Z,76.65
2023-03-31T12:18:25.751Z,76.09
2023-03-31T12:21:00.110Z,76.21
2023-03-31T12:23:31.060Z,75.90
2023-03-31T12:26:16.374Z,75.64
2023-03-31T12:28:46.090Z,75.85
2023-03-31T12:31:20.568Z,75.78
2023-03-31T12:33:58.799Z,75.63
2023-03-31T12:36:37.312Z,75.47
2023-03-31T12:39:22.336Z,75.14
2023-03-31T12:42:20.522Z,75.33
2023-03-31T12:45:00.136Z,75.10
2023-03-31T12:48:03.030Z,75.38
2023-03-31T12:51:02.741Z,75.05
2023-03-31T12:53:50.488Z,74.96
2023-03-31T12:56:17.304Z,74.39
2023-03-31T12:58:45.964Z,74.28
2023-03-31T13:01:14.785Z,73.91
2023-03-31T13:04:26.902Z,73.73
2023-03-31T13:06:56.213Z,73.87
2023-03-31T13:09:43.294Z,73.90
2023-03-31T13:12:16.234Z,73.51
2023-03-31T13:14:47.541Z,73.35
2023-03-31T13:17:27.790Z,73.55
2023-03-31T13:19:56.340Z,73.17
2023-03-31T13:22:35.552Z,73.72
2023-03-31T13:25:30.145Z,73.39
2023-03-31T13:27:58.970Z,73.42
2023-03-31T13:30:41.455Z,73.59
2023-03-31T13:33:12.042Z,73.19
2023-03-31T13:35:40.051Z,73.60
2023-03-31T13:38:25.693Z,73.93
2023-03-31T13:41:03.425Z,74.47
2023-03-31T13:44:00.536Z,74.14
2023-03-31T13:46:48.548Z,73.13
2023-03-31T13:49:54.453Z,73.07
2023-03-31T13:53:02.543Z,73.09
2023-03-31T13:56:11.397Z,73.37
2023-03-31T13:58:59.710Z,73.42
2023-03-31T14:02:01.066Z,73.79
2023-03-31T14:04:57.088Z,73.70
2023-03-31T14:07:37.604Z,74.08
2023-03-31T14:10:04.666Z,73.87
2023-03-31T14:12:38.514Z,74.14
2023-03-31T14:15:07.075Z,74.16
2023-03-31T14:17:35.921Z,74.54
2023-03-31T14:20:08.473Z,75.32
2023-03-31T14:22:51.858Z,75.56
2023-03-31T14:25:46.388Z,75.46
2023-03-31T14:28:31.980Z,75.23
2023-03-31T14:31:13.620Z,75.71
2023-03-31T14:33:40.719Z,75.65
2023-03-31T14:36:26.231Z,76.01
2023-03-31T14:38:53.053Z,75.42
2023-03-31T14:41:29.872Z,75.37
2023-03-31T14:44:00.748Z,75.71
2023-03-31T14:46:32.031Z,75.21
2023-03-31T14:48:59.083Z,74.75
2023-03-31T14:51:29.758Z,74.41
2023-03-31T14:54:00.244Z,74.28
2023-03-31T14:56:36.292Z,73.90
2023-03-31T14:59:04.765Z,74.19
2023-03-31T15:01:35.823Z,74.38
2023-03-31T15:04:12.749Z,73.72
2023-03-31T15:06:42.343Z,73.22
2023-03-31T15:09:19.429Z,73.63
2023-03-31T15:11:48.058Z,73.33
2023-03-31T15:14:14.890Z,73.17
2023-03-31T15:16:45.389Z,73.09
2023-03-31T15:19:17.713Z,73.51
2023-03-31T15:21:45.500Z,73.30
2023-03-31T15:24:13.933Z,73.01
2023-03-31T15:26:48.666Z,73.26
2023-03-31T15:29:19.401Z,72.48
2023-03-31T15:31:46.840Z,72.47
2023-03-31T15:34:29.225Z,72.83
2023-03-31T15:36:57.356Z,72.52
2023-03-31T15:39:26.713Z,72.39
2023-03-31T15:41:54.515Z,72.17
2023-03-31T15:44:36.568Z,72.06
2023-03-31T15:47:29.362Z,72.34
2023-03-31T15:50:07.551Z,72.62
2023-03-31T15:52:39.886Z,72.49
2023-03-31T15:55:25.860Z,72.44
2023-03-31T15:57:54.408Z,72.27
2023-03-31T16:00:46.661Z,71.92
2023-03-31T16:03:17.649Z,72.06
2023-03-31T16:08:47.545Z,72.38
2023-03-31T16:11:22.574Z,72.48
2023-03-31T16:13:54.424Z,72.55
2023-03-31T16:16:23.932Z,72.42
2023-03-31T16:18:54.103Z,72.94
2023-03-31T16:21:28.224Z,72.93
2023-03-31T16:23:58.440Z,72.85
2023-03-31T16:26:27.949Z,72.80
2023-03-31T16:28:57.644Z,73.13
2023-03-31T16:31:29.458Z,72.75
2023-03-31T16:33:57.259Z,73.17
2023-03-31T16:36:24.036Z,73.17
2023-03-31T16:38:54.323Z,73.20
2023-03-31T16:41:23.273Z,73.02
2023-03-31T16:43:52.562Z,73.06
2023-03-31T16:46:19.524Z,73.07
2023-03-31T16:48:46.437Z,73.42
2023-03-31T16:51:13.659Z,73.57
2023-03-31T16:53:40.378Z,73.74
2023-03-31T16:56:08.313Z,74.52
2023-03-31T16:58:36.641Z,74.13
2023-03-31T17:01:04.645Z,74.42
2023-03-31T17:03:31.510Z,74.33
2023-03-31T17:05:59.425Z,75.03
2023-03-31T17:08:27.677Z,75.04
2023-03-31T17:10:59.808Z,75.46
2023-03-31T17:13:27.205Z,75.48
2023-03-31T17:16:01.338Z,75.60
2023-03-31T17:18:36.124Z,75.88
2023-03-31T17:21:05.639Z,76.04
2023-03-31T17:23:33.245Z,76.10
2023-03-31T17:26:00.034Z,76.43
2023-03-31T17:28:27.243Z,76.16
2023-03-31T17:30:54.051Z,76.11
2023-03-31T17:33:22.508Z,76.72
2023-03-31T17:35:49.445Z,76.49
2023-03-31T17:38:16.242Z,76.47
2023-03-31T17:40:43.477Z,76.39
2023-03-31T17:43:10.170Z,77.19
2023-03-31T17:45:36.892Z,77.02
2023-03-31T17:48:06.057Z,77.03
2023-03-31T17:50:33.086Z,76.76
2023-03-31T17:52:59.752Z,76.89
2023-03-31T17:55:27.278Z,76.85
2023-03-31T17:57:54.039Z,76.86
2023-03-31T18:00:20.780Z,76.97
2023-03-31T18:02:47.633Z,76.95
2023-03-31T18:05:17.011Z,76.96
2023-03-31T18:07:44.834Z,77.52
2023-03-31T18:10:12.166Z,77.43
2023-03-31T18:12:38.813Z,77.41
2023-03-31T18:15:07.084Z,77.66
2023-03-31T18:17:34.264Z,77.25
2023-03-31T18:20:01.074Z,77.40
2023-03-31T18:22:28.484Z,77.63
2023-03-31T18:24:55.687Z,77.75
2023-03-31T18:27:24.605Z,77.60
2023-03-31T18:29:51.771Z,77.15
2023-03-31T18:32:18.597Z,77.63
2023-03-31T18:34:45.369Z,77.34
2023-03-31T18:37:12.598Z,77.22
2023-03-31T18:39:39.739Z,77.41
2023-03-31T18:42:06.601Z,77.75
2023-03-31T18:44:33.445Z,77.30
2023-03-31T18:47:00.669Z,77.34
2023-03-31T18:49:27.800Z,77.37
2023-03-31T18:51:54.417Z,77.63
2023-03-31T18:54:22.183Z,77.45
2023-03-31T18:56:48.962Z,77.29
2023-03-31T18:59:16.551Z,77.64
2023-03-31T19:01:43.353Z,77.32
2023-03-31T19:04:10.610Z,77.39
2023-03-31T19:06:37.438Z,77.64
2023-03-31T19:09:04.605Z,77.27
2023-03-31T19:11:31.183Z,77.68
2023-03-31T19:13:57.846Z,77.66
2023-03-31T19:16:26.883Z,77.81
2023-03-31T19:18:54.353Z,77.86
2023-03-31T19:21:22.089Z,77.88
2023-03-31T19:23:49.212Z,77.48
2023-03-31T19:26:18.235Z,77.34
2023-03-31T19:28:45.246Z,77.27
2023-03-31T19:31:12.414Z,77.21
2023-03-31T19:33:39.175Z,77.38
2023-03-31T19:36:06.695Z,77.64
2023-03-31T19:38:36.825Z,77.56
2023-03-31T19:41:07.431Z,78.02
2023-03-31T19:43:34.437Z,77.56
2023-03-31T19:46:01.738Z,77.79
2023-03-31T19:48:31.373Z,77.40
2023-03-31T19:50:59.895Z,78.14
2023-03-31T19:53:27.294Z,77.63
2023-03-31T19:55:56.264Z,77.79
2023-03-31T19:58:23.275Z,78.01
2023-03-31T20:00:54.432Z,78.40
2023-03-31T20:03:22.464Z,77.91
2023-03-31T20:05:49.600Z,78.38
2023-03-31T20:08:16.499Z,78.44
2023-03-31T20:10:43.502Z,78.20
2023-03-31T20:13:10.521Z,78.44
2023-03-31T20:15:38.955Z,78.59
2023-03-31T20:18:07.219Z,78.44
2023-03-31T20:20:33.989Z,78.79
2023-03-31T20:23:01.184Z,78.50
2023-03-31T20:25:28.024Z,78.56
2023-03-31T20:27:54.831Z,78.83
2023-03-31T20:30:21.759Z,78.39
2023-03-31T20:32:48.506Z,78.84
2023-03-31T20:35:15.284Z,79.09
2023-03-31T20:37:42.084Z,78.77
2023-03-31T20:40:09.453Z,78.97
2023-03-31T20:42:36.389Z,79.17
2023-03-31T20:45:03.763Z,79.04
2023-03-31T20:47:30.498Z,79.36
2023-03-31T20:49:57.177Z,79.28
2023-03-31T20:52:24.298Z,79.37
2023-03-31T20:54:51.224Z,79.33
2023-03-31T20:57:17.896Z,79.53
2023-03-31T20:59:45.541Z,79.28
2023-03-31T21:02:13.114Z,79.24
2023-03-31T21:04:39.817Z,79.51
2023-03-31T21:07:06.800Z,79.32
2023-03-31T21:09:34.162Z,79.37
2023-03-31T21:12:01.464Z,79.46
2023-03-31T21:14:29.622Z,79.83
2023-03-31T21:16:56.498Z,79.79
2023-03-31T21:19:23.342Z,80.09
2023-03-31T21:21:50.061Z,79.65
2023-03-31T21:24:16.914Z,79.79
2023-03-31T21:26:43.639Z,79.84
2023-03-31T21:29:10.858Z,79.75
2023-03-31T21:31:37.729Z,79.85
2023-03-31T21:34:05.307Z,80.07
2023-03-31T21:36:32.147Z,80.44
2023-03-31T21:38:58.886Z,80.28
2023-03-31T21:41:30.108Z,80.09
2023-03-31T21:44:00.514Z,80.12
2023-03-31T21:46:31.209Z,80.59
2023-03-31T21:48:58.044Z,80.28
2023-03-31T21:51:25.190Z,80.77
2023-03-31T21:53:56.076Z,80.32
2023-03-31T21:56:24.732Z,80.46
2023-03-31T21:58:51.906Z,80.67
2023-03-31T22:01:18.987Z,80.84
2023-03-31T22:03:46.340Z,80.72
2023-03-31T22:06:13.312Z,80.65
2023-03-31T22:08:40.755Z,80.95
2023-03-31T22:11:09.286Z,80.71
2023-03-31T22:13:36.665Z,81.13
2023-03-31T22:16:05.020Z,80.87
2023-03-31T22:18:31.971Z,80.65
2023-03-31T22:20:58.895Z,80.73
2023-03-31T22:23:26.089Z,80.68
2023-03-31T22:25:52.685Z,80.97
2023-03-31T22:28:19.498Z,80.67
2023-03-31T22:30:46.377Z,80.71
2023-03-31T22:33:13.249Z,81.01
2023-03-31T22:35:40.079Z,81.15
2023-03-31T22:38:08.523Z,81.18
2023-03-31T22:40:36.288Z,80.71
2023-03-31T22:43:03.168Z,81.19
2023-03-31T22:45:29.946Z,80.93
2023-03-31T22:47:57.035Z,81.29
2023-03-31T22:50:24.274Z,80.86
2023-03-31T22:52:50.948Z,81.28
2023-03-31T22:55:17.730Z,81.06
2023-03-31T22:57:44.680Z,81.45
2023-03-31T23:00:12.760Z,81.47
2023-03-31T23:02:40.090Z,81.37
2023-03-31T23:05:07.173Z,80.90
2023-03-31T23:07:33.909Z,81.40
2023-03-31T23:10:00.649Z,81.51
2023-03-31T23:12:28.260Z,81.26
2023-03-31T23:14:54.855Z,81.25
2023-03-31T23:17:21.531Z,81.54
2023-03-31T23:19:48.602Z,81.41
2023-03-31T23:22:15.348Z,81.54
2023-03-31T23:24:41.956Z,81.66
2023-03-31T23:27:08.753Z,81.37
2023-03-31T23:29:35.689Z,81.54
2023-03-31T23:32:03.506Z,81.80
2023-03-31T23:34:30.533Z,81.53
2023-03-31T23:36:57.282Z,81.37
2023-03-31T23:39:24.009Z,81.61
2023-03-31T23:41:51.177Z,81.62
2023-03-31T23:44:17.992Z,81.46
2023-03-31T23:46:44.732Z,81.42
2023-03-31T23:49:11.755Z,81.77
2023-03-31T23:51:38.363Z,81.95
2023-03-31T23:54:05.118Z,82.00
2023-03-31T23:56:31.773Z,82.08
2023-03-31T23:58:58.595Z,81.81
